Accueil
METAR-TAF:

METAR-TAF

Aéroports :

Aéroport de Hambourg-Finkenwerder

Finkenwerder, Allemagne

latitude: 53-32N, longitude: 009-50E, altitude: 5 m

Observation

Le bulletin a été fait il y a 26 minutes, à 05:20 UTC
Vent 8 kt de sud-ouest
Température 10°C
Humidité 93%
Pression 1003 hPa
Visibilité 10 km ou plus
Quelques nuages à une hauteur de 1400 ft
Nuages fragmentés à une hauteur de 1600 ft

METAR: EDHI 280520Z 22008KT 9999 FEW014 BKN016 10/09 Q1003

Heure: 06:46 (05:46 UTC)

Prévision

Le bulletin a été fait il y a 12 heures et 46 minutes, à 17:00 UTC
Prévision valable du 27 à 18 UTC au 27 à 21 UTC
Vent 10 kt de sud
Visibilité 10 km ou plus
Nuages épars à une hauteur de 2500 ft

TAF: EDHI 271700Z 2718/2721 19010KT 9999 SCT025

Observations et prévisions météorologiques de plus de 4000 aéroports (messages METAR et TAF).

Les stations disponibles sont représentées par des disques jaunes et rouges sur la carte.

Passer la souris dessus pour voir le nom de la station.

Cliquer dessus pour voir les observations et prévisions météorologiques.

Pour changer de carte: cliquez sur les boutons verts avec une croix noire pour zoomer, sur le bouton vert avec un tiret pour effectuer un zoom arrière, ou sur les flèches vertes pour les cartes adjacentes.


METAR-TAF: